Overton, Nevada Weather observations

Data are for observation ending at time listed.
 Day   Time    Ave.   Ave.  Ave.  Vector   Max.   Stn.    Total    Solar   Ave.  
  of    of     Air    Rel.  Wind   Wind    Wind   Baro.  Precip.   Rad.    Soil  
Year   Day     Temp.  Hum.  Speed  Dir.    Gust   Pres.                    Temp. 
2014   (PST)    F      %     mph   deg.    mph     mb.     in.     W/m2     F   
------------------------------------------------------------------------------
 355   13:10   54.4    58    2.9   215      5.1   971.6    0.00     234    51.4
 355   13:20   55.0    57    0.7   196      2.4   971.6    0.00     310    51.5
 355   13:30   55.2    57    0.8   179      1.8   971.5    0.00     286    51.6
 355   13:40   55.9    56    0.4   322      2.8   971.5    0.00     308    51.7
 355   13:50   56.3    55    0.8   174      3.4   971.5    0.00     309    51.7
 355   14:00   56.0    56    1.7   175      3.1   971.6    0.00     290    51.8
 355   14:10   56.1    56    1.4   134      3.7   971.4    0.00     258    51.9
 355   14:20   56.8    54    0.9   171      3.3   971.3    0.00     223    52.0
 355   14:30   56.9    54    0.9   115      3.3   971.8    0.00     150    52.0
 355   14:40   56.5    54    1.9   111      3.6   971.7    0.00     191    52.0
 355   14:50   56.8    54    0.9   124      2.3   971.6    0.00     190    52.0
 355   15:00   56.2    55    2.3   154      5.0   971.0    0.00     102    52.1
 355   15:10   55.7    56    4.0   176      5.9   970.8    0.00      90    52.0
 355   15:20   55.4    57    3.6   178      6.0   970.7    0.00      69    52.1
 355   15:30   55.3    57    1.9   171      4.4   970.7    0.00      46    52.1
 355   15:40   55.3    57    0.6   264      2.3   970.9    0.00      35    52.0
 355   15:50   55.1    57    0.3   253      1.6   970.6    0.00      27    52.0
 355   16:00   54.4    60    0.9   330      1.5   970.7    0.00      23    51.9
 355   16:10   53.5    62    0.1    47      0.8   970.8    0.00      17    51.8
 355   16:20   53.1    63    0.6   301      1.7   970.8    0.00       8    51.7
 355   16:30   52.0    66    0.7   260      1.9   970.7    0.00       3    51.6
 355   16:40   51.9    67    0.9   236      1.9   970.5    0.00       0    51.5
 355   16:50   51.2    69    0.7   103      1.7   970.4    0.00       0    51.4
 355   17:00   50.4    70    0.6    34      1.4   970.3    0.00       0    51.2
 355   17:10   48.5    73    1.4    38      2.3   970.3    0.00       0    51.0
 355   17:20   48.4    75    0.9   222      2.2   970.2    0.00       0    50.9
 355   17:30   48.7    75    1.6   231      3.1   970.0    0.00       0    50.8
 355   17:40   48.7    75    0.7   156      1.9   969.8    0.00       0    50.7
 355   17:50   47.2    76    1.8   329      3.1   969.9    0.00       0    50.5
 355   18:00   47.1    77    1.3   332      2.6   969.8    0.00       0    50.4
 355   18:10   46.0    78    2.6   317      4.2   969.8    0.00       0    50.3
 355   18:20   45.9    80    2.0   289      3.2   969.8    0.00       0    50.1
 355   18:30   46.6    77    1.8   307      3.7   970.0    0.00       0    49.9
 355   18:40   45.7    79    1.5     4      2.3   969.9    0.00       0    49.8
 355   18:50   45.9    80    0.2   313      1.2   969.7    0.00       0    49.7
 355   19:00   45.5    79    1.5   343      3.1   970.0    0.00       0    49.7
 355   19:10   45.1    82    1.6   290      3.1   970.1    0.00       0    49.5
 355   19:20   45.7    80    1.8   248      3.1   970.0    0.00       0    49.4
 355   19:30   45.9    79    1.8   275      3.1   969.9    0.00       0    49.4
 355   19:40   44.7    81    1.7   346      2.2   969.9    0.00       0    49.2
 355   19:50   44.6    83    1.4    48      2.7   969.8    0.00       0    49.1
 355   20:00   45.3    82    1.1   276      1.9   969.8    0.00       0    49.0
 355   20:10   45.7    80    1.6   277      3.0   969.9    0.00       0    49.0
 355   20:20   44.2    81    0.9   305      1.5   969.9    0.00       0    48.9
 355   20:30   43.5    83    1.0   319      2.4   970.0    0.00       0    48.8
 355   20:40   43.4    84    1.0   278      2.3   970.1    0.00       0    48.7
 355   20:50   43.8    84    1.6   259      2.7   970.1    0.00       0    48.6
 355   21:00   43.3    84    0.4   304      2.0   970.3    0.00       0    48.5
 355   21:10   43.4    85    1.7   269      3.1   970.2    0.00       0    48.4
 355   21:20   43.3    84    2.3   317      3.1   970.2    0.00       0    48.3
 355   21:30   42.7    85    2.0   338      3.1   970.3    0.00       0    48.1
 355   21:40   43.0    86    2.4   294      4.0   970.3    0.00       0    48.1
 355   21:50   43.2    86    1.0   280      2.8   970.2    0.00       0    48.0
 355   22:00   43.0    86    1.4    60      3.6   970.2    0.00       0    47.9
 355   22:10   43.0    86    1.0    71      3.1   970.2    0.00       0    47.8
 355   22:20   42.6    86    0.5    66      1.8   970.1    0.00       0    47.8
 355   22:30   42.6    87    2.0   221      3.7   970.0    0.00       0    47.7
 355   22:40   42.6    87    0.5   236      1.8   969.9    0.00       0    47.6
 355   22:50   41.5    86    0.8   329      1.6   969.8    0.00       0    47.5
 355   23:00   41.3    88    1.5    59      3.8   969.7    0.00       0    47.4
 355   23:10   41.5    88    0.2   322      1.4   969.8    0.00       0    47.3
 355   23:20   40.8    88    2.5   302      4.8   970.0    0.00       0    47.2
 355   23:30   40.8    89    2.9   284      5.2   970.2    0.00       0    47.2
 355   23:40   41.1    89    1.2   275      2.5   969.9    0.00       0    47.1
 355   23:50   40.7    89    2.0   328      3.2   969.9    0.00       0    47.0
 356    0:00   40.1    90    2.8   348      3.5   969.9    0.00       0    46.8
 356    0:10   40.0    90    2.5   312      3.9   969.8    0.00       0    46.7
 356    0:20   40.5    91    1.9   321      3.2   969.8    0.00       0    46.7
 356    0:30   40.8    91    0.8   281      2.3   969.8    0.00       0    46.6
 356    0:40   41.2    90    1.3   252      2.7   969.7    0.00       0    46.6
 356    0:50   41.6    90    1.3   260      2.9   969.8    0.00       0    46.6
 356    1:00   40.7    89    1.0   289      1.9   969.9    0.00       0    46.5
 356    1:10   40.5    90    1.4   291      3.2   969.7    0.00       0    46.4
 356    1:20   41.1    90    0.3   264      1.3   969.4    0.00       0    46.4
 356    1:30   40.3    90    0.3   333      2.0   969.4    0.00       0    46.3
 356    1:40   40.2    91    1.7    35      2.9   969.4    0.00       0    46.2
 356    1:50   39.7    91    1.8   332      2.8   969.5    0.00       0    46.1
 356    2:00   39.8    92    2.9   320      4.5   969.7    0.00       0    46.0
 356    2:10   40.2    92    1.6   297      3.4   969.9    0.00       0    46.0
 356    2:20   40.1    92    0.5   296      1.7   969.8    0.00       0    45.9
 356    2:30   40.0    92    2.0   261      3.2   969.7    0.00       0    45.9
 356    2:40   40.0    92    0.4   239      2.0   969.6    0.00       0    45.8
 356    2:50   39.9    92    0.2   238      1.6   969.8    0.00       0    45.8
 356    3:00   40.0    92    1.2   248      2.9   969.6    0.00       0    45.7
 356    3:10   39.6    91    0.7   250      2.1   969.5    0.00       0    45.6
 356    3:20   38.2    91    0.3   285      1.4   969.6    0.00       0    45.5
 356    3:30   38.3    92    1.4   349      2.3   969.6    0.00       0    45.3
 356    3:40   37.8    92    2.0   333      3.4   969.8    0.00       0    45.2
 356    3:50   37.3    93    1.7   333      2.4   969.9    0.00       0    45.2
 356    4:00   38.3    93    1.3   267      3.6   969.6    0.00       0    45.1
 356    4:10   37.7    93    0.8   335      1.8   969.4    0.00       0    45.0
 356    4:20   37.9    94    0.3    31      1.7   969.4    0.00       0    44.9
 356    4:30   38.5    94    1.2   310      1.7   969.2    0.00       0    44.8
 356    4:40   37.2    93    1.3   321      2.5   969.3    0.00       0    44.7
 356    4:50   37.1    94    1.0   346      2.0   969.3    0.00       0    44.7
 356    5:00   37.7    94    0.1   347      1.0   969.2    0.00       0    44.6
 356    5:10   36.6    94    0.0     0      0.0   969.3    0.00       0    44.5
 356    5:20   36.8    94    0.1   262      2.0   969.2    0.00       0    44.4
 356    5:30   35.7    93    1.0   302      1.6   969.1    0.00       0    44.3
 356    5:40   35.7    94    0.5   350      1.2   969.1    0.00       0    44.2
 356    5:50   36.3    94    1.5     2      2.4   969.2    0.00       0    44.1
 356    6:00   36.0    94    1.4    16      2.0   969.3    0.00       0    44.0
 356    6:10   36.0    94    0.1    17      0.9   969.4    0.00       0    43.9
 356    6:20   36.1    95    0.2   314      1.2   969.4    0.00       0    43.9
 356    6:30   36.4    95    1.1   276      2.0   969.3    0.00       0    43.9
 356    6:40   36.1    94    0.2   254      0.9   969.2    0.00       0    43.8
 356    6:50   34.4    94    1.6   311      2.5   969.3    0.00       2    43.7
 356    7:00   35.3    95    0.7   341      2.0   969.4    0.00       6    43.6
 356    7:10   35.2    95    0.6   336      1.5   969.3    0.00      10    43.5
 356    7:20   35.9    95    0.3   256      1.9   969.4    0.00      15    43.5
 356    7:30   36.3    95    0.4   227      1.6   969.4    0.00      67    43.5
 356    7:40   38.0    94    0.9   269      1.8   969.5    0.00      54    43.5
 356    7:50   40.3    92    0.5   278      1.8   969.6    0.00      52    43.6
 356    8:00   41.1    90    2.1   294      3.7   969.8    0.00      79    43.9
 356    8:10   41.4    89    2.7   284      4.2   969.9    0.00     163    44.2
 356    8:20   42.9    87    1.4   296      3.6   969.9    0.00     184    44.6
 356    8:30   44.7    83    1.2   317      2.7   970.1    0.00     204    45.0
 356    8:40   44.9    82    1.6   337      3.1   970.6    0.00     224    45.4
 356    8:50   45.7    81    1.4   297      2.9   970.7    0.00     244    45.7
 356    9:00   47.4    78    0.4   297      1.8   970.9    0.00     265    46.1
 356    9:10   48.7    75    1.2    26      2.6   971.0    0.00     286    46.4
 356    9:20   49.7    74    0.6     3      2.9   971.1    0.00     298    46.7
 356    9:30   51.4    70    0.3   157      1.5   971.2    0.00     319    46.9
 356    9:40   51.2    70    1.2    81      2.8   971.2    0.00     324    47.2
 356    9:50   51.8    68    1.4   151      3.4   971.2    0.00     357    47.4
 356   10:00   51.8    68    0.8   161      2.7   971.1    0.00     371    47.6
 356   10:10   52.6    66    1.0   174      2.9   971.0    0.00     369    47.7
 356   10:20   53.7    64    0.7     6      2.8   971.0    0.00     210    47.8
 356   10:30   53.7    64    0.6    64      1.9   970.9    0.00      59    47.9
 356   10:40   53.5    65    1.4   190      2.7   970.8    0.00     252    47.9
 356   10:50   54.0    64    1.9   185      4.1   970.5    0.00     353    48.0
 356   11:00   53.6    64    2.3   188      3.9   970.1    0.00     340    48.2
 356   11:10   54.4    63    2.5   194      4.7   969.7    0.00     402    48.3
 356   11:20   54.7    62    2.2   190      4.7   969.5    0.00     409    48.4
 356   11:30   56.1    59    1.2    26      2.9   969.3    0.00     448    48.5
 356   11:40   56.5    58    1.5    24      4.2   969.3    0.00     408    48.7
 356   11:50   57.3    56    1.0   143      3.0   969.1    0.00     440    48.8
 356   12:00   57.8    54    1.3   133      3.1   969.1    0.00     451    48.9
 356   12:10   57.6    55    2.2   152      4.2   968.9    0.00     446    49.0
 356   12:20   57.8    55    1.9   149      4.7   968.7    0.00     441    49.2
 356   12:30   58.8    53    1.4   131      4.7   968.6    0.00     437    49.3
 356   12:40   58.0    55    2.4   112      5.7   968.5    0.00     430    49.4
 356   12:50   58.0    55    3.5   163      6.5   968.4    0.00     420    49.6
 356   13:00   57.6    56    3.0   186      5.7   968.2    0.00     373    49.8

Return to Overton, Nevada graphs page.


Western Regional Climate Center,wrcc@dri.edu